createdAt,value
2023-02-27T00:01:46.468Z,100037.16
2023-02-27T00:04:14.867Z,100028.09
2023-02-27T00:06:44.481Z,100034.59
2023-02-27T00:09:12.582Z,100048.91
2023-02-27T00:11:40.713Z,100033.22
2023-02-27T00:14:08.816Z,100034.47
2023-02-27T00:16:36.894Z,100039.44
2023-02-27T00:19:05.714Z,100061.09
2023-02-27T00:21:36.873Z,100074.88
2023-02-27T00:24:07.405Z,100062.47
2023-02-27T00:26:35.512Z,100059.94
2023-02-27T00:29:03.736Z,100058.34
2023-02-27T00:31:32.118Z,100051.06
2023-02-27T00:34:00.323Z,100056.66
2023-02-27T00:36:28.513Z,100051.25
2023-02-27T00:38:56.630Z,100058.69
2023-02-27T00:41:26.701Z,100060.94
2023-02-27T00:43:54.959Z,100067.34
2023-02-27T00:46:25.046Z,100060.50
2023-02-27T00:48:53.111Z,100077.47
2023-02-27T00:51:22.104Z,100061.69
2023-02-27T00:53:51.009Z,100061.06
2023-02-27T00:56:19.105Z,100068.47
2023-02-27T00:58:48.607Z,100071.72
2023-02-27T01:01:16.795Z,100071.41
2023-02-27T01:03:45.118Z,100073.53
2023-02-27T01:06:13.218Z,100086.78
2023-02-27T01:08:41.342Z,100077.81
2023-02-27T01:11:11.340Z,100090.06
2023-02-27T01:13:39.397Z,100081.44
2023-02-27T01:16:10.609Z,100086.38
2023-02-27T01:18:38.752Z,100086.38
2023-02-27T01:21:07.326Z,100101.88
2023-02-27T01:23:35.452Z,100102.44
2023-02-27T01:26:03.555Z,100096.94
2023-02-27T01:28:31.635Z,100089.88
2023-02-27T01:30:59.769Z,100110.22
2023-02-27T01:33:29.623Z,100109.44
2023-02-27T01:35:57.690Z,100117.66
2023-02-27T01:38:25.823Z,100110.44
2023-02-27T01:40:54.109Z,100106.88
2023-02-27T01:43:23.700Z,100103.63
2023-02-27T01:45:52.178Z,100117.88
2023-02-27T01:48:23.770Z,100126.31
2023-02-27T01:50:56.269Z,100117.78
2023-02-27T01:53:26.311Z,100134.63
2023-02-27T01:55:59.490Z,100127.56
2023-02-27T01:58:28.360Z,100128.00
2023-02-27T02:00:56.864Z,100136.66
2023-02-27T02:03:31.345Z,100130.69
2023-02-27T02:06:06.252Z,100122.84
2023-02-27T02:08:38.011Z,100102.03
2023-02-27T02:11:07.133Z,100111.25
2023-02-27T02:13:36.188Z,100117.09
2023-02-27T02:16:21.948Z,100128.09
2023-02-27T02:18:58.330Z,100130.13
2023-02-27T02:22:14.175Z,100124.84
2023-02-27T02:25:15.729Z,100139.13
2023-02-27T02:28:02.983Z,100136.28
2023-02-27T02:31:06.286Z,100142.25
2023-02-27T02:34:01.725Z,100135.94
2023-02-27T02:37:01.041Z,100136.50
2023-02-27T02:39:55.068Z,100125.72
2023-02-27T02:42:27.043Z,100131.13
2023-02-27T02:45:03.058Z,100117.75
2023-02-27T02:47:40.721Z,100114.03
2023-02-27T02:50:15.174Z,100112.47
2023-02-27T02:52:54.634Z,100117.06
2023-02-27T02:55:28.941Z,100107.53
2023-02-27T02:58:04.477Z,100110.66
2023-02-27T03:00:36.700Z,100108.56
2023-02-27T03:03:12.436Z,100112.25
2023-02-27T03:05:48.125Z,100105.38
2023-02-27T03:08:20.828Z,100106.53
2023-02-27T03:10:54.964Z,100115.50
2023-02-27T03:13:28.928Z,100114.59
2023-02-27T03:16:03.794Z,100112.47
2023-02-27T03:18:38.593Z,100111.34
2023-02-27T03:21:11.870Z,100121.00
2023-02-27T03:23:46.507Z,100132.56
2023-02-27T03:26:18.832Z,100114.59
2023-02-27T03:28:56.837Z,100128.19
2023-02-27T03:31:32.549Z,100134.91
2023-02-27T03:34:13.217Z,100138.03
2023-02-27T03:36:49.043Z,100139.03
2023-02-27T03:39:28.789Z,100148.31
2023-02-27T03:42:11.563Z,100149.72
2023-02-27T03:44:52.461Z,100159.13
2023-02-27T03:47:21.267Z,100144.28
2023-02-27T03:49:52.343Z,100148.91
2023-02-27T03:52:22.119Z,100150.69
2023-02-27T03:54:56.613Z,100147.72
2023-02-27T03:57:26.929Z,100153.19
2023-02-27T03:59:55.134Z,100151.25
2023-02-27T04:02:24.538Z,100156.34
2023-02-27T04:04:52.586Z,100156.00
2023-02-27T04:07:29.622Z,100156.44
2023-02-27T04:10:32.074Z,100164.00
2023-02-27T04:13:35.043Z,100163.59
2023-02-27T04:16:34.903Z,100171.34
2023-02-27T04:19:17.170Z,100168.78
2023-02-27T04:21:57.307Z,100171.78
2023-02-27T04:24:37.420Z,100157.91
2023-02-27T04:27:17.691Z,100158.53
2023-02-27T04:29:57.066Z,100158.22
2023-02-27T04:32:35.193Z,100154.47
2023-02-27T04:35:11.062Z,100163.28
2023-02-27T04:37:49.987Z,100157.28
2023-02-27T04:40:21.801Z,100164.84
2023-02-27T04:42:54.955Z,100179.53
2023-02-27T04:45:27.416Z,100186.75
2023-02-27T04:48:00.186Z,100178.25
2023-02-27T04:50:33.818Z,100172.41
2023-02-27T04:53:07.515Z,100187.69
2023-02-27T04:55:41.213Z,100193.53
2023-02-27T04:58:14.086Z,100193.53
2023-02-27T05:00:49.384Z,100203.16
2023-02-27T05:03:20.989Z,100207.13
2023-02-27T05:05:52.434Z,100203.81
2023-02-27T05:08:25.841Z,100206.19
2023-02-27T05:11:03.945Z,100212.31
2023-02-27T05:13:39.317Z,100212.22
2023-02-27T05:16:18.157Z,100217.88
2023-02-27T05:18:46.896Z,100225.16
2023-02-27T05:21:25.395Z,100227.06
2023-02-27T05:24:05.397Z,100239.97
2023-02-27T05:26:55.725Z,100231.47
2023-02-27T05:29:33.491Z,100253.56
2023-02-27T05:32:09.176Z,100236.38
2023-02-27T05:34:43.750Z,100239.06
2023-02-27T05:37:17.344Z,100247.44
2023-02-27T05:39:48.782Z,100253.56
2023-02-27T05:42:20.866Z,100256.88
2023-02-27T05:44:53.006Z,100248.19
2023-02-27T05:47:26.385Z,100252.16
2023-02-27T05:49:59.322Z,100245.19
2023-02-27T05:52:29.502Z,100260.66
2023-02-27T05:55:03.329Z,100263.03
2023-02-27T05:57:37.467Z,100273.78
2023-02-27T06:00:13.431Z,100276.00
2023-02-27T06:02:45.018Z,100271.75
2023-02-27T06:05:15.658Z,100278.38
2023-02-27T06:07:43.718Z,100262.72
2023-02-27T06:10:15.078Z,100270.00
2023-02-27T06:12:43.475Z,100266.84
2023-02-27T06:15:13.030Z,100274.41
2023-02-27T06:17:42.526Z,100277.72
2023-02-27T06:20:12.208Z,100276.94
2023-02-27T06:22:42.029Z,100272.03
2023-02-27T06:25:11.148Z,100272.84
2023-02-27T06:27:39.365Z,100289.72
2023-02-27T06:30:08.704Z,100286.38
2023-02-27T06:32:36.818Z,100277.00
2023-02-27T06:35:07.512Z,100280.78
2023-02-27T06:37:35.600Z,100283.44
2023-02-27T06:40:05.970Z,100286.44
2023-02-27T06:42:34.374Z,100292.41
2023-02-27T06:45:02.449Z,100279.28
2023-02-27T06:47:31.540Z,100280.25
2023-02-27T06:49:59.676Z,100286.44
2023-02-27T06:52:29.178Z,100288.31
2023-02-27T06:54:57.284Z,100278.19
2023-02-27T06:57:25.866Z,100279.25
2023-02-27T06:59:54.032Z,100270.88
2023-02-27T07:02:23.598Z,100275.28
2023-02-27T07:04:51.658Z,100271.78
2023-02-27T07:07:32.901Z,100269.34
2023-02-27T07:10:08.105Z,100260.59
2023-02-27T07:12:36.176Z,100272.31
2023-02-27T07:15:06.752Z,100268.69
2023-02-27T07:17:34.884Z,100261.06
2023-02-27T07:20:08.558Z,100272.41
2023-02-27T07:22:41.515Z,100259.72
2023-02-27T07:25:12.184Z,100235.81
2023-02-27T07:27:40.333Z,100236.91
2023-02-27T07:30:10.039Z,100243.59
2023-02-27T07:32:38.168Z,100221.56
2023-02-27T07:35:09.220Z,100233.03
2023-02-27T07:37:37.633Z,100235.66
2023-02-27T07:40:07.816Z,100222.97
2023-02-27T07:42:37.405Z,100227.06
2023-02-27T07:45:06.107Z,100228.06
2023-02-27T07:47:34.232Z,100241.44
2023-02-27T07:50:03.353Z,100242.84
2023-02-27T07:52:37.400Z,100250.25
2023-02-27T07:55:05.695Z,100256.22
2023-02-27T07:57:34.285Z,100269.00
2023-02-27T08:00:04.857Z,100275.22
2023-02-27T08:02:35.062Z,100276.16
2023-02-27T08:05:03.105Z,100293.00
2023-02-27T08:07:31.183Z,100298.38
2023-02-27T08:10:01.627Z,100291.78
2023-02-27T08:12:30.008Z,100294.22
2023-02-27T08:14:58.113Z,100298.75
2023-02-27T08:17:29.256Z,100305.28
2023-02-27T08:19:57.277Z,100307.78
2023-02-27T08:22:25.392Z,100303.13
2023-02-27T08:24:53.466Z,100306.75
2023-02-27T08:27:21.592Z,100316.00
2023-02-27T08:29:49.942Z,100307.03
2023-02-27T08:32:18.325Z,100313.69
2023-02-27T08:34:47.799Z,100316.41
2023-02-27T08:37:18.258Z,100323.31
2023-02-27T08:39:46.346Z,100337.88
2023-02-27T08:42:18.022Z,100334.94
2023-02-27T08:44:46.332Z,100339.00
2023-02-27T08:47:14.906Z,100335.69
2023-02-27T08:49:43.009Z,100350.72
2023-02-27T08:52:13.053Z,100353.44
2023-02-27T08:54:41.187Z,100366.13
2023-02-27T08:57:09.535Z,100362.31
2023-02-27T08:59:37.559Z,100372.75
2023-02-27T09:02:06.687Z,100387.13
2023-02-27T09:04:34.978Z,100385.47
2023-02-27T09:07:03.138Z,100382.53
2023-02-27T09:09:32.865Z,100385.47
2023-02-27T09:12:01.049Z,100373.25
2023-02-27T09:14:29.162Z,100368.19
2023-02-27T09:16:58.371Z,100386.25
2023-02-27T09:19:27.017Z,100384.72
2023-02-27T09:21:55.234Z,100389.69
2023-02-27T09:24:23.510Z,100391.13
2023-02-27T09:26:54.081Z,100399.44
2023-02-27T09:29:23.886Z,100403.81
2023-02-27T09:31:52.122Z,100413.00
2023-02-27T09:34:20.467Z,100407.56
2023-02-27T09:36:48.559Z,100408.28
2023-02-27T09:39:19.465Z,100415.88
2023-02-27T09:41:58.632Z,100411.88
2023-02-27T09:44:47.410Z,100423.25
2023-02-27T09:47:24.652Z,100418.09
2023-02-27T09:50:05.558Z,100408.63
2023-02-27T09:52:36.601Z,100420.22
2023-02-27T09:55:07.601Z,100427.75
2023-02-27T09:57:45.733Z,100419.81
2023-02-27T10:00:31.660Z,100427.41
2023-02-27T10:03:11.442Z,100423.97
2023-02-27T10:05:47.849Z,100434.06
2023-02-27T10:08:24.405Z,100424.19
2023-02-27T10:11:01.406Z,100429.31
2023-02-27T10:13:44.870Z,100431.56
2023-02-27T10:16:16.771Z,100425.25
2023-02-27T10:18:52.204Z,100435.38
2023-02-27T10:21:24.256Z,100435.75
2023-02-27T10:23:58.538Z,100435.31
2023-02-27T10:26:33.153Z,100430.47
2023-02-27T10:29:15.050Z,100437.31
2023-02-27T10:31:45.827Z,100440.53
2023-02-27T10:34:16.416Z,100449.63
2023-02-27T10:36:48.857Z,100440.44
2023-02-27T10:39:20.994Z,100443.03
2023-02-27T10:41:51.426Z,100445.56
2023-02-27T10:44:21.065Z,100448.63
2023-02-27T10:46:51.898Z,100449.22
2023-02-27T10:49:24.668Z,100458.06
2023-02-27T10:52:11.271Z,100452.63
2023-02-27T10:54:40.591Z,100463.78
2023-02-27T10:57:22.528Z,100454.50
2023-02-27T10:59:57.851Z,100458.78
2023-02-27T11:02:34.122Z,100453.38
2023-02-27T11:05:02.498Z,100449.88
2023-02-27T11:07:33.815Z,100442.63
2023-02-27T11:10:17.789Z,100447.22
2023-02-27T11:13:01.056Z,100443.50
2023-02-27T11:15:33.013Z,100455.28
2023-02-27T11:18:22.005Z,100453.28
2023-02-27T11:20:51.767Z,100460.97
2023-02-27T11:23:22.384Z,100453.41
2023-02-27T11:25:51.269Z,100463.69
2023-02-27T11:28:25.595Z,100464.75
2023-02-27T11:31:01.148Z,100469.53
2023-02-27T11:33:30.890Z,100474.59
2023-02-27T11:35:59.849Z,100484.88
2023-02-27T11:38:30.469Z,100473.88
2023-02-27T11:41:01.466Z,100473.19
2023-02-27T11:43:32.629Z,100473.94
2023-02-27T11:46:43.248Z,100493.09
2023-02-27T11:49:01.501Z,100499.81
2023-02-27T11:51:44.372Z,100491.47
2023-02-27T11:54:19.353Z,100493.94
2023-02-27T11:56:51.022Z,100498.53
2023-02-27T11:59:27.701Z,100508.72
2023-02-27T12:02:04.940Z,100507.53
2023-02-27T12:04:44.571Z,100494.84
2023-02-27T12:07:19.681Z,100500.91
2023-02-27T12:09:53.107Z,100502.91
2023-02-27T12:12:25.168Z,100497.72
2023-02-27T12:15:04.626Z,100496.00
2023-02-27T12:17:40.950Z,100496.31
2023-02-27T12:20:25.825Z,100503.03
2023-02-27T12:22:55.959Z,100495.59
2023-02-27T12:25:35.168Z,100507.03
2023-02-27T12:28:12.622Z,100504.09
2023-02-27T12:30:46.505Z,100504.38
2023-02-27T12:33:22.318Z,100506.31
2023-02-27T12:35:57.147Z,100518.22
2023-02-27T12:38:25.694Z,100523.97
2023-02-27T12:41:08.771Z,100517.06
2023-02-27T12:43:43.348Z,100516.38
2023-02-27T12:46:32.159Z,100517.63
2023-02-27T12:49:21.086Z,100524.78
2023-02-27T12:51:57.745Z,100524.50
2023-02-27T12:54:37.000Z,100530.00
2023-02-27T12:57:24.331Z,100536.41
2023-02-27T13:00:02.183Z,100530.38
2023-02-27T13:02:51.965Z,100529.50
2023-02-27T13:05:34.196Z,100544.97
2023-02-27T13:08:10.882Z,100536.03
2023-02-27T13:10:59.006Z,100539.63
2023-02-27T13:13:34.482Z,100551.19
2023-02-27T13:16:07.454Z,100558.34
2023-02-27T13:18:45.550Z,100554.66
2023-02-27T13:21:22.471Z,100552.13
2023-02-27T13:24:04.072Z,100565.84
2023-02-27T13:26:38.354Z,100565.50
2023-02-27T13:29:07.979Z,100556.66
2023-02-27T13:31:44.190Z,100564.00
2023-02-27T13:34:22.133Z,100562.03
2023-02-27T13:36:55.442Z,100568.72
2023-02-27T13:39:40.900Z,100565.44
2023-02-27T13:42:41.854Z,100566.25
2023-02-27T13:45:49.838Z,100560.88
2023-02-27T13:48:53.904Z,100570.63
2023-02-27T13:51:59.634Z,100582.41
2023-02-27T13:54:36.484Z,100581.50
2023-02-27T13:57:24.389Z,100590.88
2023-02-27T14:00:01.547Z,100596.34
2023-02-27T14:02:59.478Z,100597.78
2023-02-27T14:05:34.865Z,100608.63
2023-02-27T14:08:10.697Z,100607.56
2023-02-27T14:10:40.531Z,100617.56
2023-02-27T14:13:47.247Z,100625.69
2023-02-27T14:17:06.430Z,100623.38
2023-02-27T14:19:59.721Z,100625.13
2023-02-27T14:22:56.725Z,100633.03
2023-02-27T14:25:37.981Z,100640.63
2023-02-27T14:28:06.594Z,100646.19
2023-02-27T14:30:40.756Z,100642.81
2023-02-27T14:33:19.480Z,100645.88
2023-02-27T14:36:03.374Z,100641.25
2023-02-27T14:38:34.763Z,100635.22
2023-02-27T14:41:26.813Z,100646.47
2023-02-27T14:43:57.674Z,100656.78
2023-02-27T14:46:29.620Z,100651.59
2023-02-27T14:49:00.746Z,100664.09
2023-02-27T14:51:32.674Z,100677.06
2023-02-27T14:54:05.932Z,100674.03
2023-02-27T14:56:36.405Z,100674.59
2023-02-27T14:59:15.796Z,100676.72
2023-02-27T15:01:44.020Z,100675.56
2023-02-27T15:04:18.886Z,100684.94
2023-02-27T15:06:50.233Z,100702.66
2023-02-27T15:09:24.898Z,100719.31
2023-02-27T15:12:04.120Z,100727.91
2023-02-27T15:14:36.918Z,100732.97
2023-02-27T15:17:06.077Z,100729.97
2023-02-27T15:19:34.194Z,100724.25
2023-02-27T15:22:05.561Z,100731.06
2023-02-27T15:24:49.241Z,100729.94
2023-02-27T15:27:23.361Z,100712.47
2023-02-27T15:29:54.225Z,100717.97
2023-02-27T15:32:28.513Z,100726.94
2023-02-27T15:35:01.011Z,100728.03
2023-02-27T15:37:32.219Z,100735.63
2023-02-27T15:40:01.811Z,100729.53
2023-02-27T15:42:35.150Z,100735.00
2023-02-27T15:45:06.361Z,100735.84
2023-02-27T15:47:36.056Z,100733.53
2023-02-27T15:50:12.130Z,100742.44
2023-02-27T15:52:43.528Z,100738.72
2023-02-27T15:55:15.298Z,100756.84
2023-02-27T15:58:00.598Z,100762.50
2023-02-27T16:00:32.232Z,100765.81
2023-02-27T16:03:01.422Z,100770.94
2023-02-27T16:05:34.808Z,100794.19
2023-02-27T16:08:03.737Z,100804.25
2023-02-27T16:10:37.656Z,100810.59
2023-02-27T16:13:22.650Z,100797.38
2023-02-27T16:16:01.335Z,100796.28
2023-02-27T16:18:34.662Z,100797.88
2023-02-27T16:21:14.897Z,100793.03
2023-02-27T16:23:44.008Z,100800.06
2023-02-27T16:26:32.152Z,100818.28
2023-02-27T16:29:03.959Z,100829.22
2023-02-27T16:31:34.272Z,100837.84
2023-02-27T16:34:14.545Z,100841.72
2023-02-27T16:36:44.439Z,100869.28
2023-02-27T16:39:14.186Z,100875.44
2023-02-27T16:41:42.295Z,100864.81
2023-02-27T16:44:12.105Z,100871.47
2023-02-27T16:46:40.304Z,100881.25
2023-02-27T16:49:20.229Z,100876.91
2023-02-27T16:51:48.777Z,100863.41
2023-02-27T16:54:17.739Z,100889.66
2023-02-27T16:56:47.340Z,100888.00
2023-02-27T16:59:29.222Z,100879.81
2023-02-27T17:01:58.197Z,100895.88
2023-02-27T17:04:27.707Z,100887.63
2023-02-27T17:06:57.039Z,100892.50
2023-02-27T17:09:27.360Z,100885.66
2023-02-27T17:11:55.960Z,100889.56
2023-02-27T17:14:25.973Z,100899.19
2023-02-27T17:16:54.549Z,100903.19
2023-02-27T17:19:26.862Z,100905.59
2023-02-27T17:21:55.539Z,100902.72
2023-02-27T17:24:24.029Z,100899.50
2023-02-27T17:26:52.584Z,100911.31
2023-02-27T17:29:21.198Z,100920.19
2023-02-27T17:31:51.088Z,100914.59
2023-02-27T17:34:19.280Z,100919.91
2023-02-27T17:36:52.656Z,100922.47
2023-02-27T17:39:20.856Z,100922.78
2023-02-27T17:41:49.247Z,100931.13
2023-02-27T17:44:18.800Z,100940.59
2023-02-27T17:46:47.209Z,100950.56
2023-02-27T17:49:17.153Z,100953.72
2023-02-27T17:51:45.397Z,100941.28
2023-02-27T17:54:13.581Z,100955.78
2023-02-27T17:56:44.885Z,100961.22
2023-02-27T17:59:17.940Z,100964.53
2023-02-27T18:01:46.033Z,100967.78
2023-02-27T18:04:14.482Z,100956.06
2023-02-27T18:06:44.255Z,100959.03
2023-02-27T18:09:12.361Z,100956.38
2023-02-27T18:11:41.817Z,100976.09
2023-02-27T18:14:10.450Z,100959.03
2023-02-27T18:16:41.513Z,100967.84
2023-02-27T18:19:10.171Z,100973.22
2023-02-27T18:21:38.395Z,100973.78
2023-02-27T18:24:08.428Z,100983.66
2023-02-27T18:26:36.691Z,100989.28
2023-02-27T18:29:07.556Z,100991.44
2023-02-27T18:31:38.264Z,100984.22
2023-02-27T18:34:06.619Z,100988.75
2023-02-27T18:36:35.308Z,100971.16
2023-02-27T18:39:05.044Z,100961.28
2023-02-27T18:41:35.219Z,100956.78
2023-02-27T18:44:03.493Z,100980.75
2023-02-27T18:46:32.582Z,100978.38
2023-02-27T18:49:01.079Z,100979.44
2023-02-27T18:51:29.376Z,100988.25
2023-02-27T18:53:58.419Z,100979.19
2023-02-27T18:56:28.197Z,100983.19
2023-02-27T18:59:02.045Z,100987.44
2023-02-27T19:01:32.255Z,100982.13
2023-02-27T19:04:03.786Z,100992.50
2023-02-27T19:06:32.767Z,101009.56
2023-02-27T19:09:00.977Z,101023.94
2023-02-27T19:11:33.348Z,101020.22
2023-02-27T19:14:04.533Z,101024.19
2023-02-27T19:16:33.177Z,101030.06
2023-02-27T19:19:03.220Z,101038.06
2023-02-27T19:21:32.294Z,101021.25
2023-02-27T19:24:03.381Z,101035.38
2023-02-27T19:26:34.790Z,101052.69
2023-02-27T19:29:05.491Z,101038.28
2023-02-27T19:31:33.589Z,101029.25
2023-02-27T19:34:02.202Z,101038.59
2023-02-27T19:36:32.259Z,101047.63
2023-02-27T19:39:00.659Z,101053.19
2023-02-27T19:41:30.383Z,101040.97
2023-02-27T19:43:59.437Z,101046.25
2023-02-27T19:46:31.191Z,101051.59
2023-02-27T19:49:01.596Z,101060.66
2023-02-27T19:51:30.015Z,101056.66
2023-02-27T19:53:58.266Z,101046.28
2023-02-27T19:56:30.004Z,101055.06
2023-02-27T19:58:58.951Z,101058.53
2023-02-27T20:01:31.064Z,101054.25
2023-02-27T20:03:59.651Z,101051.59
2023-02-27T20:06:30.255Z,101047.03
2023-02-27T20:08:59.894Z,101061.69
2023-02-27T20:11:30.698Z,101072.28
2023-02-27T20:13:59.204Z,101049.94
2023-02-27T20:16:30.833Z,101056.88
2023-02-27T20:18:59.613Z,101075.78
2023-02-27T20:21:28.772Z,101080.09
2023-02-27T20:23:58.897Z,101069.97
2023-02-27T20:26:30.793Z,101061.72
2023-02-27T20:29:01.373Z,101059.31
2023-02-27T20:31:33.693Z,101067.03
2023-02-27T20:34:02.142Z,101089.13
2023-02-27T20:36:30.672Z,101073.97
2023-02-27T20:38:58.737Z,101079.34
2023-02-27T20:41:29.545Z,101078.00
2023-02-27T20:43:58.656Z,101059.56
2023-02-27T20:46:28.736Z,101072.13
2023-02-27T20:49:00.404Z,101081.19
2023-02-27T20:51:30.820Z,101086.78
2023-02-27T20:54:00.608Z,101097.44
2023-02-27T20:56:30.387Z,101129.13
2023-02-27T20:58:59.794Z,101132.38
2023-02-27T21:01:28.588Z,101130.78
2023-02-27T21:03:59.051Z,101131.56
2023-02-27T21:06:27.703Z,101150.75
2023-02-27T21:08:57.430Z,101149.19
2023-02-27T21:11:29.180Z,101147.84
2023-02-27T21:13:58.564Z,101157.69
2023-02-27T21:16:27.357Z,101152.91
2023-02-27T21:18:57.636Z,101165.44
2023-02-27T21:21:28.256Z,101153.41
2023-02-27T21:23:56.843Z,101163.53
2023-02-27T21:26:26.934Z,101181.41
2023-02-27T21:28:56.551Z,101175.59
2023-02-27T21:31:26.662Z,101175.81
2023-02-27T21:33:55.642Z,101175.00
2023-02-27T21:36:30.545Z,101158.47
2023-02-27T21:39:00.188Z,101167.47
2023-02-27T21:41:29.422Z,101168.56
2023-02-27T21:44:00.799Z,101181.94
2023-02-27T21:46:29.513Z,101183.19
2023-02-27T21:48:58.512Z,101199.69
2023-02-27T21:51:39.518Z,101204.50
2023-02-27T21:54:10.704Z,101204.75
2023-02-27T21:56:38.997Z,101204.81
2023-02-27T21:59:07.577Z,101211.91
2023-02-27T22:01:36.107Z,101202.88
2023-02-27T22:04:05.028Z,101209.28
2023-02-27T22:06:35.426Z,101211.97
2023-02-27T22:09:06.429Z,101216.72
2023-02-27T22:11:35.878Z,101229.31
2023-02-27T22:14:04.582Z,101219.63
2023-02-27T22:16:32.778Z,101232.75
2023-02-27T22:19:01.222Z,101219.63
2023-02-27T22:21:32.251Z,101232.50
2023-02-27T22:24:01.922Z,101242.25
2023-02-27T22:26:30.907Z,101240.41
2023-02-27T22:29:00.618Z,101236.34
2023-02-27T22:31:31.395Z,101247.25
2023-02-27T22:34:02.798Z,101260.34
2023-02-27T22:36:32.752Z,101256.63
2023-02-27T22:39:02.853Z,101247.56
2023-02-27T22:41:32.863Z,101251.53
2023-02-27T22:44:02.226Z,101257.44
2023-02-27T22:46:32.446Z,101262.69
2023-02-27T22:49:03.153Z,101282.88
2023-02-27T22:51:31.492Z,101276.22
2023-02-27T22:54:03.225Z,101278.22
2023-02-27T22:56:31.880Z,101280.19
2023-02-27T22:59:00.138Z,101257.00
2023-02-27T23:01:31.108Z,101263.38
2023-02-27T23:04:00.807Z,101265.97
2023-02-27T23:06:31.601Z,101272.25
2023-02-27T23:09:00.088Z,101267.50
2023-02-27T23:11:30.083Z,101269.66
2023-02-27T23:13:58.366Z,101268.53
2023-02-27T23:16:27.030Z,101254.47
2023-02-27T23:18:56.564Z,101272.47
2023-02-27T23:21:26.272Z,101281.50
2023-02-27T23:23:54.616Z,101284.69
2023-02-27T23:26:23.009Z,101287.66
2023-02-27T23:28:52.941Z,101290.84
2023-02-27T23:31:21.734Z,101298.63
2023-02-27T23:33:50.354Z,101284.72
2023-02-27T23:36:19.163Z,101289.72
2023-02-27T23:38:47.838Z,101288.72
2023-02-27T23:41:17.685Z,101311.34
2023-02-27T23:43:46.334Z,101314.81
2023-02-27T23:46:17.538Z,101320.69
2023-02-27T23:48:46.017Z,101324.41
2023-02-27T23:51:14.177Z,101333.94
2023-02-27T23:53:43.628Z,101320.28
2023-02-27T23:56:17.140Z,101331.44
2023-02-27T23:58:45.569Z,101359.84
